Portada
METAR-TAF:

METAR-TAF

Aeropuertos :

Burgos, España

Aeropuerto de Burgos

latitud: 42-22N, longitud: 003-38W, altitud: 894 m

Observación

El informe se hizo hace 19 minutos, a las 02:30 UTC
Viento 5 kt del norte-noreste
Temperatura -1°C
Humedad 93%
Presión 1027 hPa
Visibilidad 10 km o más

METAR: LEBG 180230Z AUTO 03005KT 9999 FEW038/// M01/M02 Q1027

Hora: 03:49 (02:49 UTC)

Pronóstico

El informe se hizo hace 49 minutos, a las 02:00 UTC
Pronóstico válido del 18 a las 03 UTC al 18 a las 12 UTC
Viento 7 kt del norte-noreste
Visibilidad 10 km o más
Cielo nuboso a una altura de 2000 ft
Temporalmente
del 18 a las 05 UTC al 18 a las 11 UTC
Cielo nuboso a una altura de 1400 ft

TAF: LEBG 180200Z 1803/1812 03007KT 9999 BKN020 TEMPO 1805/1811 BKN014

Observaciones y pronósticos meteorológicos de más de 4000 aeropuertos (mensajes METAR y TAF).

Los puntos amarillos y rojos representan las estaciones disponibles.

Ponga el ratón en el punto deseado para ver el nombre de la estación.

Haga clic para ver las observaciones y los pronósticos meteorológicos.

Para cambiar el mapa : haga clic en los botones verdes con una cruz de color negro para hacer un zoom, en el botón verde con un guión para alejar o en las flechas verdes para mapas adyacentes.


METAR-TAF: